Time;durP1;ratioP1;P1;durP2;ratioP2;P2;SDS_P1;SDS_P2;PMS_P1;PMS_P2;Temp;Humidity;BMP_temperature;BMP_pressure;BME280_temperature;BME280_humidity;BME280_pressure;Samples;Min_cycle;Max_cycle;Signal;HPM_P1;HPM_P2
2023/10/01 00:00:12;;;;;;;4.93;1.70;;;;;;;;;;5090612;28;20113;-78
2023/10/01 00:02:42;;;;;;;4.45;1.88;;;;;;;;;;5090742;28;20127;-79
2023/10/01 00:05:10;;;;;;;5.78;1.80;;;;;;;;;;5090445;28;20492;-79
2023/10/01 00:07:37;;;;;;;3.15;1.40;;;;;;;;;;5072288;28;20052;-78
2023/10/01 00:10:10;;;;;;;4.15;1.48;;;;;;;;;;5090156;28;20048;-78
2023/10/01 00:12:46;;;;;;;5.53;2.10;;;;;;;;;;5090493;28;20048;-79
2023/10/01 00:15:16;;;;;;;7.60;1.83;;;;;;;;;;5090585;28;20173;-78
2023/10/01 00:17:48;;;;;;;3.17;1.27;;;;;;;;;;5089941;28;20048;-81
2023/10/01 00:20:20;;;;;;;4.78;1.67;;;;;;;;;;5089877;28;20052;-80
2023/10/01 00:22:57;;;;;;;3.10;1.27;;;;;;;;;;5090299;28;20044;-79
2023/10/01 00:25:24;;;;;;;4.75;1.65;;;;;;;;;;5090469;28;20052;-77
2023/10/01 00:27:51;;;;;;;3.03;1.45;;;;;;;;;;5090101;28;20127;-79
2023/10/01 00:30:18;;;;;;;3.13;1.30;;;;;;;;;;5090045;28;20043;-79
2023/10/01 00:32:46;;;;;;;2.40;1.40;;;;;;;;;;5090164;28;20070;-77
2023/10/01 00:35:13;;;;;;;3.58;1.50;;;;;;;;;;5090615;28;20106;-79
2023/10/01 00:37:40;;;;;;;3.78;1.33;;;;;;;;;;5089743;28;20558;-80
2023/10/01 00:40:10;;;;;;;3.70;1.50;;;;;;;;;;5089637;28;20052;-78
2023/10/01 00:42:38;;;;;;;;;;;;;;;;;;5090519;28;20048;-80
2023/10/01 00:45:14;;;;;;;2.67;1.38;;;;;;;;;;5089669;28;19920;-80
2023/10/01 00:47:43;;;;;;;3.30;1.48;;;;;;;;;;5089887;28;20046;-79
2023/10/01 00:50:15;;;;;;;2.35;1.20;;;;;;;;;;5090077;28;20112;-80
2023/10/01 00:52:44;;;;;;;4.35;1.60;;;;;;;;;;5089898;28;20143;-80
2023/10/01 00:55:13;;;;;;;3.38;1.40;;;;;;;;;;5089198;28;20159;-80
2023/10/01 00:57:41;;;;;;;2.88;1.33;;;;;;;;;;5089434;28;20080;-80
2023/10/01 01:00:14;;;;;;;2.47;1.20;;;;;;;;;;5089400;28;20048;-77
2023/10/01 01:02:56;;;;;;;3.10;1.45;;;;;;;;;;5089834;28;20048;-79
2023/10/01 01:05:35;;;;;;;2.42;1.25;;;;;;;;;;5089460;28;20044;-80
2023/10/01 01:08:08;;;;;;;3.90;1.25;;;;;;;;;;5088839;28;20415;-79
2023/10/01 01:10:40;;;;;;;4.13;1.38;;;;;;;;;;5089621;28;20048;-80
2023/10/01 01:13:07;;;;;;;2.45;1.25;;;;;;;;;;5089575;28;20072;-80
2023/10/01 01:15:34;;;;;;;5.45;1.30;;;;;;;;;;5089271;28;20704;-79
2023/10/01 01:18:07;;;;;;;3.00;1.30;;;;;;;;;;5089278;28;20052;-80
2023/10/01 01:20:36;;;;;;;3.17;1.40;;;;;;;;;;5088937;28;20044;-80
2023/10/01 01:23:05;;;;;;;3.17;1.13;;;;;;;;;;5089034;28;20109;-80
2023/10/01 01:25:32;;;;;;;1.98;1.10;;;;;;;;;;5089151;28;20051;-79
2023/10/01 01:27:59;;;;;;;3.17;1.25;;;;;;;;;;5089033;28;20048;-80
2023/10/01 01:30:29;;;;;;;1.88;1.10;;;;;;;;;;5089215;28;20040;-78
2023/10/01 01:32:58;;;;;;;2.08;1.23;;;;;;;;;;5088953;28;20052;-79
2023/10/01 01:35:35;;;;;;;3.50;1.13;;;;;;;;;;5088965;28;20128;-79
2023/10/01 01:38:02;;;;;;;2.22;1.27;;;;;;;;;;5088760;28;20044;-77
2023/10/01 01:40:35;;;;;;;2.67;1.30;;;;;;;;;;5089090;28;20056;-78
2023/10/01 01:45:55;;;;;;;2.97;1.33;;;;;;;;;;5089295;28;20044;-77
2023/10/01 01:48:29;;;;;;;3.85;1.27;;;;;;;;;;5088975;28;20119;-79
2023/10/01 01:51:00;;;;;;;2.42;1.20;;;;;;;;;;5088421;28;20050;-76
2023/10/01 01:53:35;;;;;;;2.42;1.25;;;;;;;;;;5070114;28;20526;-76
2023/10/01 01:56:08;;;;;;;5.07;1.42;;;;;;;;;;5089063;28;20165;-77
2023/10/01 01:58:39;;;;;;;3.00;1.40;;;;;;;;;;5088608;28;20086;-79
2023/10/01 02:03:44;;;;;;;3.65;1.45;;;;;;;;;;5088216;28;20514;-77
2023/10/01 02:06:13;;;;;;;5.72;1.58;;;;;;;;;;5088456;28;20802;-78
2023/10/01 02:09:00;;;;;;;3.17;1.20;;;;;;;;;;5087168;28;20135;-78
2023/10/01 02:11:32;;;;;;;1.88;1.13;;;;;;;;;;5088677;28;20124;-79
2023/10/01 02:14:02;;;;;;;3.83;1.50;;;;;;;;;;5088249;28;20131;-77
2023/10/01 02:16:35;;;;;;;2.80;1.38;;;;;;;;;;5088306;28;20136;-78
2023/10/01 02:19:22;;;;;;;4.85;1.40;;;;;;;;;;5088327;28;20044;-78
2023/10/01 02:21:59;;;;;;;2.50;1.40;;;;;;;;;;5088310;28;20105;-78
2023/10/01 02:24:46;;;;;;;4.07;1.30;;;;;;;;;;5087829;28;20109;-79
2023/10/01 02:27:18;;;;;;;2.40;1.20;;;;;;;;;;5088514;28;20492;-77
2023/10/01 02:29:45;;;;;;;2.55;1.33;;;;;;;;;;5088240;28;20472;-76
2023/10/01 02:32:14;;;;;;;3.22;1.40;;;;;;;;;;5088375;28;20122;-79
2023/10/01 02:34:42;;;;;;;4.40;1.40;;;;;;;;;;5088501;28;20091;-79
2023/10/01 02:37:25;;;;;;;2.10;1.02;;;;;;;;;;5088728;28;20040;-78
2023/10/01 02:39:52;;;;;;;3.63;1.20;;;;;;;;;;5088169;28;20040;-78
2023/10/01 02:42:21;;;;;;;2.22;1.17;;;;;;;;;;5088624;28;20131;-78
2023/10/01 02:44:49;;;;;;;7.10;1.30;;;;;;;;;;5088223;28;20052;-78
2023/10/01 02:47:16;;;;;;;3.15;1.30;;;;;;;;;;5088088;28;20563;-77
2023/10/01 02:49:52;;;;;;;3.88;1.27;;;;;;;;;;5087835;28;20066;-78
2023/10/01 02:52:26;;;;;;;2.63;1.23;;;;;;;;;;5088181;28;20127;-76
2023/10/01 02:55:00;;;;;;;2.78;1.20;;;;;;;;;;5069807;28;20048;-77
2023/10/01 02:57:27;;;;;;;4.95;1.10;;;;;;;;;;5088043;28;20108;-78
2023/10/01 03:02:58;;;;;;;2.00;1.30;;;;;;;;;;5053672;28;20055;-77
2023/10/01 03:05:33;;;;;;;2.22;1.20;;;;;;;;;;5088207;28;20131;-78
2023/10/01 03:08:11;;;;;;;3.00;1.27;;;;;;;;;;5087755;28;20063;-78
2023/10/01 03:10:38;;;;;;;3.80;1.38;;;;;;;;;;5087401;28;20052;-74
2023/10/01 03:13:19;;;;;;;3.88;1.48;;;;;;;;;;5088376;28;20067;-76
2023/10/01 03:16:39;;;;;;;4.38;1.65;;;;;;;;;;5088026;28;20044;-79
2023/10/01 03:18:36;;;;;;;4.07;1.70;;;;;;;;;;5087806;28;20079;-78
2023/10/01 03:21:07;;;;;;;2.95;1.30;;;;;;;;;;5088555;28;20044;-78
2023/10/01 03:23:34;;;;;;;3.88;1.67;;;;;;;;;;5091147;28;20040;-75
2023/10/01 03:31:22;;;;;;;4.15;1.60;;;;;;;;;;5091206;28;20085;-77
2023/10/01 03:33:53;;;;;;;3.25;1.70;;;;;;;;;;5073869;28;20048;-77
2023/10/01 03:36:28;;;;;;;3.20;1.45;;;;;;;;;;5091255;28;20082;-78
2023/10/01 03:38:59;;;;;;;3.53;1.60;;;;;;;;;;5090752;28;20507;-78
2023/10/01 03:41:27;;;;;;;3.65;1.60;;;;;;;;;;5090632;28;20424;-79
2023/10/01 03:43:56;;;;;;;4.25;1.60;;;;;;;;;;5073123;28;20508;-78
2023/10/01 03:46:26;;;;;;;3.28;1.60;;;;;;;;;;5090862;28;20044;-78
2023/10/01 03:48:57;;;;;;;4.57;1.70;;;;;;;;;;5091063;28;20048;-78
2023/10/01 03:54:21;;;;;;;3.75;1.58;;;;;;;;;;5090285;28;20048;-76
2023/10/01 03:56:56;;;;;;;4.38;1.60;;;;;;;;;;5091032;28;20048;-77
2023/10/01 03:59:32;;;;;;;2.63;1.40;;;;;;;;;;5090606;28;20039;-79
2023/10/01 04:01:59;;;;;;;2.97;1.50;;;;;;;;;;5072766;28;20048;-77
2023/10/01 04:04:28;;;;;;;3.58;1.60;;;;;;;;;;5090715;28;20491;-78
2023/10/01 04:06:56;;;;;;;2.80;1.38;;;;;;;;;;5090579;28;20067;-75
2023/10/01 04:09:26;;;;;;;3.05;1.40;;;;;;;;;;5091864;28;20040;-76
2023/10/01 04:12:18;;;;;;;2.92;1.10;;;;;;;;;;5091414;28;20048;-79
2023/10/01 04:14:48;;;;;;;3.08;1.30;;;;;;;;;;5090261;28;20040;-75
2023/10/01 04:17:19;;;;;;;2.95;1.20;;;;;;;;;;5090304;28;20503;-79
2023/10/01 04:19:56;;;;;;;3.05;1.20;;;;;;;;;;5090434;28;20498;-75
2023/10/01 04:22:25;;;;;;;3.90;1.20;;;;;;;;;;5090462;28;20044;-78
2023/10/01 04:25:10;;;;;;;2.65;1.10;;;;;;;;;;5089955;28;20048;-77
2023/10/01 04:27:45;;;;;;;2.15;1.08;;;;;;;;;;5090360;28;20048;-78
2023/10/01 04:30:14;;;;;;;2.00;1.00;;;;;;;;;;5090083;28;20043;-77
2023/10/01 04:32:42;;;;;;;2.63;1.20;;;;;;;;;;5089664;28;20051;-77
2023/10/01 04:35:14;;;;;;;3.17;1.38;;;;;;;;;;5089840;28;20109;-78
2023/10/01 04:37:48;;;;;;;2.70;1.13;;;;;;;;;;5090325;28;20046;-78
2023/10/01 04:40:37;;;;;;;3.58;1.15;;;;;;;;;;5088718;28;20044;-76
2023/10/01 04:43:10;;;;;;;3.33;1.30;;;;;;;;;;5090616;28;20089;-77
2023/10/01 04:45:40;;;;;;;2.67;1.10;;;;;;;;;;5089359;28;20493;-77
2023/10/01 04:48:22;;;;;;;4.30;1.48;;;;;;;;;;5090144;28;20073;-79
2023/10/01 04:50:51;;;;;;;2.28;1.10;;;;;;;;;;5089763;28;20082;-77
2023/10/01 04:53:20;;;;;;;2.72;1.00;;;;;;;;;;5089113;28;20048;-77
2023/10/01 04:56:05;;;;;;;3.17;1.17;;;;;;;;;;5089514;28;20051;-78
2023/10/01 04:58:41;;;;;;;3.67;1.00;;;;;;;;;;5089915;28;20040;-78
2023/10/01 05:01:12;;;;;;;1.77;1.00;;;;;;;;;;5089362;28;20067;-71
2023/10/01 05:03:39;;;;;;;2.25;0.90;;;;;;;;;;5089348;28;20044;-73
2023/10/01 05:06:09;;;;;;;3.28;1.20;;;;;;;;;;5089495;28;20128;-79
2023/10/01 05:08:38;;;;;;;3.75;1.05;;;;;;;;;;5089115;28;20067;-76
2023/10/01 05:11:11;;;;;;;4.72;1.23;;;;;;;;;;5089414;28;20052;-77
2023/10/01 05:13:42;;;;;;;1.75;0.90;;;;;;;;;;5089685;28;20128;-79
2023/10/01 05:16:12;;;;;;;2.47;1.20;;;;;;;;;;5089528;28;20408;-78
2023/10/01 05:18:42;;;;;;;5.10;1.23;;;;;;;;;;5089881;28;20044;-77
2023/10/01 05:21:13;;;;;;;2.50;1.17;;;;;;;;;;5088964;28;20040;-79
2023/10/01 05:23:40;;;;;;;1.95;0.93;;;;;;;;;;5088975;28;20044;-78
2023/10/01 05:26:08;;;;;;;3.88;1.10;;;;;;;;;;5089117;28;20084;-78
2023/10/01 05:28:36;;;;;;;2.72;1.20;;;;;;;;;;5089325;28;20051;-78
2023/10/01 05:31:12;;;;;;;2.05;1.20;;;;;;;;;;5089170;28;20040;-71
2023/10/01 05:33:42;;;;;;;1.90;0.95;;;;;;;;;;5089226;28;20102;-79
2023/10/01 05:36:08;;;;;;;3.25;1.02;;;;;;;;;;5088985;28;20425;-78
2023/10/01 05:38:36;;;;;;;3.08;1.50;;;;;;;;;;5088449;28;20503;-78
2023/10/01 05:41:04;;;;;;;3.08;1.38;;;;;;;;;;5089147;28;20070;-79
2023/10/01 05:43:37;;;;;;;3.85;1.08;;;;;;;;;;5087781;28;20052;-78
2023/10/01 05:46:11;;;;;;;2.78;1.20;;;;;;;;;;5088882;28;20098;-79
2023/10/01 05:48:39;;;;;;;2.45;1.33;;;;;;;;;;5088740;28;20078;-79
2023/10/01 05:51:19;;;;;;;2.25;1.02;;;;;;;;;;5089103;28;20040;-78
2023/10/01 05:53:52;;;;;;;2.65;1.17;;;;;;;;;;5088430;28;20040;-78
2023/10/01 05:56:18;;;;;;;3.25;1.10;;;;;;;;;;5088541;28;20496;-79
2023/10/01 05:58:47;;;;;;;2.13;0.90;;;;;;;;;;5088890;28;20044;-78
2023/10/01 06:01:14;;;;;;;2.80;1.10;;;;;;;;;;5088101;28;20052;-73
2023/10/01 06:03:42;;;;;;;3.28;1.10;;;;;;;;;;5088924;28;20419;-75
2023/10/01 06:06:13;;;;;;;3.00;1.10;;;;;;;;;;5088458;28;20071;-78
2023/10/01 06:08:46;;;;;;;2.30;1.17;;;;;;;;;;5088231;28;20044;-76
2023/10/01 06:11:15;;;;;;;2.63;1.25;;;;;;;;;;5089283;28;20056;-73
2023/10/01 06:13:56;;;;;;;3.25;1.33;;;;;;;;;;5088642;28;20079;-78
2023/10/01 06:16:24;;;;;;;2.45;1.25;;;;;;;;;;5089631;28;20071;-80
2023/10/01 06:18:56;;;;;;;2.47;1.23;;;;;;;;;;5088947;28;20119;-79
2023/10/01 06:21:26;;;;;;;2.40;1.00;;;;;;;;;;5088091;28;20052;-75
2023/10/01 06:23:58;;;;;;;2.15;1.20;;;;;;;;;;5088007;28;20051;-71
2023/10/01 06:26:36;;;;;;;2.55;1.23;;;;;;;;;;5088640;28;20423;-79
2023/10/01 06:29:07;;;;;;;4.25;1.50;;;;;;;;;;5099873;28;20040;-79
2023/10/01 06:32:00;;;;;;;3.67;1.23;;;;;;;;;;5099763;28;20051;-75
2023/10/01 06:34:39;;;;;;;3.33;1.30;;;;;;;;;;5079140;28;20040;-80
2023/10/01 06:37:06;;;;;;;2.95;1.38;;;;;;;;;;5088923;28;20055;-80
2023/10/01 06:39:35;;;;;;;4.07;1.50;;;;;;;;;;5088316;28;20040;-80
2023/10/01 06:42:23;;;;;;;3.28;1.15;;;;;;;;;;5087463;28;20044;-79
2023/10/01 06:44:54;;;;;;;2.58;1.10;;;;;;;;;;5093794;28;20058;-73
2023/10/01 06:47:23;;;;;;;4.72;1.20;;;;;;;;;;5089174;28;20144;-77
2023/10/01 06:49:57;;;;;;;2.85;1.20;;;;;;;;;;5077112;28;20048;-77
2023/10/01 06:52:28;;;;;;;3.78;1.02;;;;;;;;;;5098623;28;20059;-79
2023/10/01 06:54:56;;;;;;;;;;;;;;;;;;5100540;28;20115;-76
2023/10/01 06:57:33;;;;;;;5.07;1.42;;;;;;;;;;5097053;28;19970;-78
2023/10/01 07:00:00;;;;;;;3.50;1.40;;;;;;;;;;5095516;28;20414;-77
2023/10/01 07:02:27;;;;;;;2.70;1.35;;;;;;;;;;5094509;28;20094;-79
2023/10/01 07:04:58;;;;;;;3.50;1.35;;;;;;;;;;5086947;28;20052;-80
2023/10/01 07:07:31;;;;;;;4.55;1.23;;;;;;;;;;5083679;28;20056;-78
2023/10/01 07:10:00;;;;;;;2.92;1.25;;;;;;;;;;5103016;28;20107;-79
2023/10/01 07:12:27;;;;;;;2.72;1.15;;;;;;;;;;5102908;28;20052;-80
2023/10/01 07:14:53;;;;;;;3.75;1.42;;;;;;;;;;5102397;28;20118;-81
2023/10/01 07:17:24;;;;;;;2.30;1.10;;;;;;;;;;5084746;28;20285;-78
2023/10/01 07:19:59;;;;;;;3.22;1.25;;;;;;;;;;5078254;28;20181;-78
2023/10/01 07:22:31;;;;;;;5.28;1.40;;;;;;;;;;5075023;28;20044;-74
2023/10/01 07:25:05;;;;;;;4.75;1.25;;;;;;;;;;5080619;28;20116;-77
2023/10/01 07:27:33;;;;;;;3.85;1.42;;;;;;;;;;5058761;28;20059;-76
2023/10/01 07:30:01;;;;;;;3.05;1.25;;;;;;;;;;5081064;28;20325;-76
2023/10/01 07:32:27;;;;;;;2.95;1.33;;;;;;;;;;5075066;28;20115;-77
2023/10/01 07:34:59;;;;;;;2.83;1.30;;;;;;;;;;5071458;28;20075;-75
2023/10/01 07:37:29;;;;;;;4.00;1.20;;;;;;;;;;5080154;28;20040;-79
2023/10/01 07:40:08;;;;;;;2.15;1.15;;;;;;;;;;5079562;28;20111;-78
2023/10/01 07:42:46;;;;;;;5.95;1.50;;;;;;;;;;5074511;28;20053;-76
2023/10/01 07:45:17;;;;;;;3.13;1.50;;;;;;;;;;5082002;28;20103;-74
2023/10/01 07:47:44;;;;;;;2.35;1.30;;;;;;;;;;5082196;28;20293;-80
2023/10/01 07:50:16;;;;;;;2.97;1.40;;;;;;;;;;5082669;28;20051;-76
2023/10/01 07:52:44;;;;;;;2.95;1.42;;;;;;;;;;5077613;28;20049;-78
2023/10/01 08:16:20;;;;;;;3.75;1.60;;;;;;;;;;5166410;27;20165;-77
2023/10/01 08:18:47;;;;;;;3.92;1.65;;;;;;;;;;5141572;27;20047;-77
2023/10/01 08:21:17;;;;;;;3.63;1.60;;;;;;;;;;5159948;27;20043;-78
2023/10/01 08:23:54;;;;;;;3.58;1.67;;;;;;;;;;5159806;27;20043;-77
2023/10/01 08:29:07;;;;;;;3.78;1.77;;;;;;;;;;5160091;27;20089;-77
2023/10/01 08:34:23;;;;;;;3.88;1.50;;;;;;;;;;5159875;27;20057;-80
2023/10/01 08:36:54;;;;;;;3.15;1.40;;;;;;;;;;5145783;27;20075;-78
2023/10/01 08:39:33;;;;;;;2.67;1.50;;;;;;;;;;5138826;28;20073;-77
2023/10/01 08:42:09;;;;;;;3.50;1.63;;;;;;;;;;5138979;28;20262;-79
2023/10/01 08:44:45;;;;;;;3.90;1.60;;;;;;;;;;5138542;28;20361;-76
2023/10/01 08:47:21;;;;;;;3.50;1.40;;;;;;;;;;5138894;28;20217;-76
2023/10/01 08:49:50;;;;;;;3.33;1.38;;;;;;;;;;5139092;28;20047;-76
2023/10/01 08:52:30;;;;;;;3.22;1.60;;;;;;;;;;5139173;27;20057;-76
2023/10/01 08:54:57;;;;;;;3.13;1.30;;;;;;;;;;5138833;28;20051;-76
2023/10/01 08:57:45;;;;;;;6.38;1.40;;;;;;;;;;5143073;27;20043;-76
2023/10/01 09:00:20;;;;;;;2.40;1.33;;;;;;;;;;5156771;27;20049;-77
2023/10/01 09:02:55;;;;;;;4.70;1.70;;;;;;;;;;5134318;27;20047;-75
2023/10/01 09:05:23;;;;;;;2.47;1.30;;;;;;;;;;5135202;27;20647;-75
2023/10/01 09:10:51;;;;;;;3.47;1.40;;;;;;;;;;5139103;27;20538;-79
2023/10/01 09:13:23;;;;;;;2.53;1.15;;;;;;;;;;5128836;27;20123;-78
2023/10/01 09:15:56;;;;;;;3.15;1.50;;;;;;;;;;5146879;27;20589;-78
2023/10/01 09:18:25;;;;;;;1.92;0.95;;;;;;;;;;5138100;27;20461;-78
2023/10/01 09:23:54;;;;;;;1.85;0.95;;;;;;;;;;5127228;28;20039;-77
2023/10/01 09:26:37;;;;;;;1.67;0.85;;;;;;;;;;5126328;27;20130;-79
2023/10/01 09:29:14;;;;;;;2.00;0.95;;;;;;;;;;5138393;27;20047;-74
2023/10/01 09:31:56;;;;;;;1.60;1.02;;;;;;;;;;5135683;27;20039;-81
2023/10/01 09:34:33;;;;;;;2.05;1.00;;;;;;;;;;5133153;27;20047;-75
2023/10/01 09:37:01;;;;;;;2.30;0.95;;;;;;;;;;5140215;27;20064;-75
2023/10/01 09:39:41;;;;;;;1.63;1.00;;;;;;;;;;5144124;27;20074;-81
2023/10/01 09:42:22;;;;;;;2.55;1.10;;;;;;;;;;5144980;27;20047;-81
2023/10/01 09:44:53;;;;;;;2.33;1.23;;;;;;;;;;5128543;27;20052;-78
2023/10/01 09:47:24;;;;;;;2.33;1.00;;;;;;;;;;5123708;28;20092;-76
2023/10/01 09:49:52;;;;;;;1.73;1.00;;;;;;;;;;5122044;28;20111;-77
2023/10/01 09:52:48;;;;;;;2.40;0.93;;;;;;;;;;5122759;28;20114;-78
2023/10/01 09:55:26;;;;;;;1.65;0.90;;;;;;;;;;5123567;28;20047;-77
2023/10/01 09:57:54;;;;;;;3.65;1.10;;;;;;;;;;5124115;28;20088;-74
2023/10/01 10:00:21;;;;;;;2.03;1.00;;;;;;;;;;5103187;28;20043;-76
2023/10/01 10:02:53;;;;;;;3.42;1.13;;;;;;;;;;5123438;28;20044;-75
2023/10/01 10:05:28;;;;;;;3.40;1.10;;;;;;;;;;5123244;28;20043;-88
2023/10/01 10:08:11;;;;;;;2.53;1.25;;;;;;;;;;5105318;28;20115;-77
2023/10/01 10:10:38;;;;;;;1.90;0.98;;;;;;;;;;5119397;28;20047;-78
2023/10/01 10:13:37;;;;;;;3.05;1.10;;;;;;;;;;5121627;28;20051;-77
2023/10/01 10:19:08;;;;;;;4.22;1.20;;;;;;;;;;5122128;28;20070;-77
2023/10/01 10:24:46;;;;;;;2.08;1.02;;;;;;;;;;5122883;28;20048;-77
2023/10/01 10:27:28;;;;;;;4.05;1.25;;;;;;;;;;5123218;28;20051;-75
2023/10/01 10:32:30;;;;;;;6.80;1.60;;;;;;;;;;5123119;28;20324;-78
2023/10/01 10:35:04;;;;;;;2.55;1.35;;;;;;;;;;5122667;28;20320;-75
2023/10/01 10:37:56;;;;;;;3.28;1.20;;;;;;;;;;5122219;28;20373;-77
2023/10/01 10:40:23;;;;;;;1.90;1.15;;;;;;;;;;5122099;28;20044;-78
2023/10/01 10:42:57;;;;;;;3.10;1.20;;;;;;;;;;5121902;28;20071;-75
2023/10/01 10:45:45;;;;;;;2.25;1.15;;;;;;;;;;5121215;28;20048;-76
2023/10/01 10:48:14;;;;;;;3.25;1.40;;;;;;;;;;5121867;28;20132;-78
2023/10/01 10:50:45;;;;;;;2.65;1.20;;;;;;;;;;5121900;28;20115;-74
2023/10/01 10:53:21;;;;;;;2.88;1.35;;;;;;;;;;5112269;28;20051;-76
2023/10/01 10:56:08;;;;;;;2.10;1.08;;;;;;;;;;5110972;28;20083;-78
2023/10/01 10:58:40;;;;;;;2.30;1.20;;;;;;;;;;5111500;28;20039;-77
2023/10/01 11:01:20;;;;;;;2.60;1.10;;;;;;;;;;5110713;28;20563;-77
2023/10/01 11:03:57;;;;;;;;;;;;;;;;;;5111609;28;20660;-80
2023/10/01 11:06:42;;;;;;;2.50;1.00;;;;;;;;;;5092759;28;20017;-78
2023/10/01 11:09:23;;;;;;;2.00;1.00;;;;;;;;;;5114880;27;20122;-76
2023/10/01 11:12:05;;;;;;;1.60;1.00;;;;;;;;;;5134818;27;20095;-76
2023/10/01 11:14:37;;;;;;;2.85;1.08;;;;;;;;;;5118054;28;20058;-76
2023/10/01 11:17:07;;;;;;;1.90;1.00;;;;;;;;;;5121230;28;20235;-76
2023/10/01 11:19:38;;;;;;;2.28;1.10;;;;;;;;;;5125513;27;20050;-77
2023/10/01 11:22:06;;;;;;;2.70;1.25;;;;;;;;;;5116414;27;20043;-76
2023/10/01 11:24:42;;;;;;;3.47;1.15;;;;;;;;;;5127073;27;20042;-76
2023/10/01 11:27:25;;;;;;;3.00;1.48;;;;;;;;;;5123287;28;20054;-77
2023/10/01 11:29:59;;;;;;;3.03;1.58;;;;;;;;;;5142444;27;20050;-77
2023/10/01 11:35:35;;;;;;;3.38;1.10;;;;;;;;;;5141516;27;20080;-79
2023/10/01 11:38:22;;;;;;;1.95;1.10;;;;;;;;;;5121048;28;20047;-78
2023/10/01 11:43:42;;;;;;;1.58;1.00;;;;;;;;;;5121447;28;20048;-80
2023/10/01 11:46:25;;;;;;;2.13;1.20;;;;;;;;;;5103507;28;20110;-79
2023/10/01 11:48:57;;;;;;;1.88;1.10;;;;;;;;;;5119705;28;20075;-80
2023/10/01 11:51:30;;;;;;;3.17;1.05;;;;;;;;;;5110006;28;20040;-79
2023/10/01 11:54:12;;;;;;;1.98;1.10;;;;;;;;;;5104296;27;20073;-82
2023/10/01 11:56:41;;;;;;;2.53;1.10;;;;;;;;;;5139160;27;20047;-76
2023/10/01 11:59:17;;;;;;;2.22;1.10;;;;;;;;;;5140940;27;20043;-74
2023/10/01 12:01:52;;;;;;;2.28;1.15;;;;;;;;;;5122000;27;20047;-77
2023/10/01 12:04:24;;;;;;;2.60;1.20;;;;;;;;;;5141044;27;20054;-76
2023/10/01 12:06:56;;;;;;;2.05;1.30;;;;;;;;;;5141432;27;20054;-74
2023/10/01 12:09:24;;;;;;;2.53;1.15;;;;;;;;;;5141808;27;20043;-74
2023/10/01 12:12:04;;;;;;;2.13;1.30;;;;;;;;;;5141177;27;20039;-73
2023/10/01 12:14:32;;;;;;;1.98;1.00;;;;;;;;;;5141589;28;20384;-75
2023/10/01 12:17:01;;;;;;;2.42;1.08;;;;;;;;;;5141201;27;20232;-75
2023/10/01 12:19:29;;;;;;;1.80;1.20;;;;;;;;;;5142039;28;20105;-74
2023/10/01 12:22:05;;;;;;;2.30;1.00;;;;;;;;;;5141729;28;20372;-76
2023/10/01 12:24:44;;;;;;;3.28;1.50;;;;;;;;;;5123949;28;20063;-74
2023/10/01 12:27:37;;;;;;;2.15;1.10;;;;;;;;;;5141828;28;20050;-75
2023/10/01 12:29:58;;;;;;;2.17;1.27;;;;;;;;;;5121194;28;20110;-76
2023/10/01 12:32:40;;;;;;;2.72;1.30;;;;;;;;;;5136287;27;20050;-73
2023/10/01 12:35:18;;;;;;;2.42;1.30;;;;;;;;;;5140178;28;20082;-78
2023/10/01 12:37:45;;;;;;;3.10;1.70;;;;;;;;;;5141830;28;20047;-74
2023/10/01 12:40:16;;;;;;;2.30;1.42;;;;;;;;;;5142019;27;20520;-75
2023/10/01 12:42:50;;;;;;;3.42;1.30;;;;;;;;;;5141688;28;20129;-72
2023/10/01 12:45:19;;;;;;;4.82;1.42;;;;;;;;;;5141725;27;20035;-75
2023/10/01 12:48:07;;;;;;;2.88;1.30;;;;;;;;;;5141758;28;20323;-74
2023/10/01 12:50:33;;;;;;;2.38;1.35;;;;;;;;;;5141368;28;20039;-74
2023/10/01 12:53:19;;;;;;;3.20;1.50;;;;;;;;;;5141307;28;20051;-74
2023/10/01 12:55:52;;;;;;;2.83;1.35;;;;;;;;;;5140924;28;20417;-74
2023/10/01 12:58:35;;;;;;;3.83;1.52;;;;;;;;;;5141571;27;20046;-76
2023/10/01 13:01:07;;;;;;;2.55;1.50;;;;;;;;;;5123648;27;20395;-76
2023/10/01 13:03:42;;;;;;;2.97;1.50;;;;;;;;;;5145546;27;20323;-75
2023/10/01 13:06:12;;;;;;;3.58;1.58;;;;;;;;;;5142531;27;20351;-75
2023/10/01 13:08:42;;;;;;;2.67;1.38;;;;;;;;;;5142730;27;20069;-76
2023/10/01 13:11:50;;;;;;;3.08;1.50;;;;;;;;;;5142789;27;20110;-72
2023/10/01 13:14:16;;;;;;;2.63;1.45;;;;;;;;;;5143496;27;20350;-75
2023/10/01 13:17:00;;;;;;;3.72;1.50;;;;;;;;;;5143629;27;20043;-73
2023/10/01 13:19:33;;;;;;;3.30;1.60;;;;;;;;;;5143794;27;20384;-76
2023/10/01 13:22:04;;;;;;;2.53;1.42;;;;;;;;;;5140397;27;20035;-75
2023/10/01 13:24:32;;;;;;;3.40;1.85;;;;;;;;;;5136692;27;20347;-73
2023/10/01 13:27:13;;;;;;;3.47;1.60;;;;;;;;;;5129418;27;20047;-77
2023/10/01 13:29:40;;;;;;;2.53;1.40;;;;;;;;;;5126169;27;20054;-78
2023/10/01 13:32:16;;;;;;;3.80;1.17;;;;;;;;;;5140840;27;20051;-79
2023/10/01 13:34:54;;;;;;;2.97;1.40;;;;;;;;;;5141919;27;20050;-79
2023/10/01 13:40:12;;;;;;;3.28;1.70;;;;;;;;;;5124916;27;20070;-79
2023/10/01 14:08:43;;;;;;;3.38;1.67;;;;;;;;;;5124215;28;20043;-80
2023/10/01 14:10:38;;;;;;;3.70;1.40;;;;;;;;;;5144578;27;20111;-79
2023/10/01 14:13:06;;;;;;;3.13;1.55;;;;;;;;;;5142469;27;20094;-77
2023/10/01 14:15:33;;;;;;;4.65;1.40;;;;;;;;;;5141559;27;20053;-74
2023/10/01 14:18:08;;;;;;;4.05;1.92;;;;;;;;;;5143740;27;20060;-80
2023/10/01 14:23:26;;;;;;;5.25;1.88;;;;;;;;;;5142481;27;20073;-78
2023/10/01 14:25:58;;;;;;;3.08;1.52;;;;;;;;;;5143788;27;20053;-79
2023/10/01 14:28:27;;;;;;;2.60;1.50;;;;;;;;;;5144053;27;20050;-77
2023/10/01 14:31:05;;;;;;;4.38;1.73;;;;;;;;;;5143948;27;20055;-79
2023/10/01 14:33:34;;;;;;;2.85;1.42;;;;;;;;;;5143024;27;20039;-77
2023/10/01 14:36:04;;;;;;;3.78;2.00;;;;;;;;;;5125109;27;20338;-76
2023/10/01 14:38:42;;;;;;;3.97;1.50;;;;;;;;;;5143289;27;20110;-77
2023/10/01 14:41:18;;;;;;;3.20;1.88;;;;;;;;;;5132879;27;20076;-75
2023/10/01 14:43:48;;;;;;;4.13;1.70;;;;;;;;;;5142944;27;20407;-78
2023/10/01 14:46:16;;;;;;;4.13;1.60;;;;;;;;;;5143229;27;20427;-75
2023/10/01 14:48:46;;;;;;;5.15;1.90;;;;;;;;;;5142547;27;20048;-75
2023/10/01 14:51:18;;;;;;;2.90;1.60;;;;;;;;;;5141980;27;20238;-77
2023/10/01 14:53:52;;;;;;;4.13;1.58;;;;;;;;;;5141912;27;20043;-75
2023/10/01 14:56:20;;;;;;;2.72;1.48;;;;;;;;;;5141914;27;20115;-74
2023/10/01 14:58:51;;;;;;;3.95;1.75;;;;;;;;;;5141217;27;20050;-71
2023/10/01 15:01:19;;;;;;;3.55;1.70;;;;;;;;;;5141902;27;20291;-74
2023/10/01 15:03:53;;;;;;;3.45;1.77;;;;;;;;;;5140204;27;20316;-75
2023/10/01 15:06:22;;;;;;;4.35;2.10;;;;;;;;;;5141282;27;20050;-76
2023/10/01 15:08:58;;;;;;;3.60;1.70;;;;;;;;;;5141331;27;20039;-77
2023/10/01 15:11:26;;;;;;;3.63;1.60;;;;;;;;;;5140709;27;20403;-84
2023/10/01 15:13:54;;;;;;;4.35;2.00;;;;;;;;;;5142156;27;20051;-78
2023/10/01 15:16:23;;;;;;;4.00;2.00;;;;;;;;;;5142315;27;20047;-78
2023/10/01 15:19:07;;;;;;;4.25;2.00;;;;;;;;;;5141188;27;20044;-78
2023/10/01 15:21:39;;;;;;;4.60;1.73;;;;;;;;;;5140720;27;20406;-80
2023/10/01 15:24:07;;;;;;;5.05;1.73;;;;;;;;;;5139038;27;20434;-79
2023/10/01 15:26:42;;;;;;;5.30;2.10;;;;;;;;;;5142825;27;20047;-79
2023/10/01 15:29:14;;;;;;;3.92;1.70;;;;;;;;;;5142821;27;20043;-76
2023/10/01 15:31:44;;;;;;;;;;;;;;;;;;5143368;27;20110;-78
2023/10/01 15:34:18;;;;;;;5.18;1.70;;;;;;;;;;5141837;27;20298;-79
2023/10/01 15:36:46;;;;;;;4.43;1.45;;;;;;;;;;5142578;27;20039;-78
2023/10/01 15:42:11;;;;;;;4.28;1.60;;;;;;;;;;5142312;27;20053;-85
2023/10/01 15:44:48;;;;;;;7.13;1.90;;;;;;;;;;5142273;27;20077;-77
2023/10/01 15:47:32;;;;;;;4.40;1.80;;;;;;;;;;5142466;27;20110;-77
2023/10/01 15:50:06;;;;;;;5.28;1.85;;;;;;;;;;5129137;27;20416;-73
2023/10/01 15:52:49;;;;;;;3.17;1.52;;;;;;;;;;5124281;27;20039;-78
2023/10/01 15:55:31;;;;;;;3.55;1.70;;;;;;;;;;5121586;27;20418;-78
2023/10/01 15:58:03;;;;;;;4.22;1.70;;;;;;;;;;5134716;27;20427;-76
2023/10/01 16:00:34;;;;;;;3.75;1.90;;;;;;;;;;5137652;27;20046;-80
2023/10/01 16:03:05;;;;;;;3.83;1.80;;;;;;;;;;5114987;27;20039;-77
2023/10/01 16:05:41;;;;;;;3.58;1.50;;;;;;;;;;5134745;27;20039;-78
2023/10/01 16:08:20;;;;;;;4.28;1.75;;;;;;;;;;5142141;27;20113;-75
2023/10/01 16:11:00;;;;;;;4.00;1.77;;;;;;;;;;5103861;28;20044;-78
2023/10/01 16:13:33;;;;;;;5.82;2.05;;;;;;;;;;5121151;28;20051;-76
2023/10/01 16:16:07;;;;;;;4.53;1.80;;;;;;;;;;5121306;28;20055;-78
2023/10/01 16:18:35;;;;;;;4.65;2.00;;;;;;;;;;5097495;28;20050;-77
2023/10/01 16:21:04;;;;;;;4.55;2.22;;;;;;;;;;5136189;28;20053;-77
2023/10/01 16:23:40;;;;;;;3.65;1.90;;;;;;;;;;5110809;28;20090;-78
2023/10/01 16:26:14;;;;;;;4.15;1.90;;;;;;;;;;5119459;28;20039;-77
2023/10/01 16:28:44;;;;;;;5.65;2.10;;;;;;;;;;5112198;28;20050;-78
2023/10/01 16:31:15;;;;;;;5.22;2.10;;;;;;;;;;5123611;28;20328;-78
2023/10/01 16:33:44;;;;;;;6.18;2.13;;;;;;;;;;5141710;27;20074;-74
2023/10/01 16:36:16;;;;;;;5.25;2.35;;;;;;;;;;5142361;27;20042;-75
2023/10/01 16:38:47;;;;;;;7.18;2.90;;;;;;;;;;5145953;27;20047;-76
2023/10/01 16:41:16;;;;;;;5.50;2.20;;;;;;;;;;5145953;27;20317;-77
2023/10/01 16:43:51;;;;;;;6.10;2.17;;;;;;;;;;5145915;27;20043;-78
2023/10/01 16:46:22;;;;;;;6.25;2.60;;;;;;;;;;5146027;27;20088;-77
2023/10/01 16:48:57;;;;;;;4.85;2.30;;;;;;;;;;5145586;27;20134;-79
2023/10/01 16:51:25;;;;;;;6.22;2.38;;;;;;;;;;5145598;27;20043;-77
2023/10/01 16:53:56;;;;;;;11.73;3.10;;;;;;;;;;5145151;27;20043;-78